sensor_id;sensor_type;location;lat;lon;timestamp;temperature;humidity
1700;DHT22;847;48.058;7.810;2023-03-24T00:00:07;14.60;93.00
1700;DHT22;847;48.058;7.810;2023-03-24T00:02:35;14.50;94.20
1700;DHT22;847;48.058;7.810;2023-03-24T00:05:06;14.20;94.70
1700;DHT22;847;48.058;7.810;2023-03-24T00:07:33;14.50;94.40
1700;DHT22;847;48.058;7.810;2023-03-24T00:10:05;14.80;93.10
1700;DHT22;847;48.058;7.810;2023-03-24T00:12:34;14.70;92.80
1700;DHT22;847;48.058;7.810;2023-03-24T00:15:04;14.80;92.90
1700;DHT22;847;48.058;7.810;2023-03-24T00:17:30;14.90;92.60
1700;DHT22;847;48.058;7.810;2023-03-24T00:20:01;15.10;91.90
1700;DHT22;847;48.058;7.810;2023-03-24T00:22:31;15.20;91.30
1700;DHT22;847;48.058;7.810;2023-03-24T00:24:58;15.20;91.80
1700;DHT22;847;48.058;7.810;2023-03-24T00:27:29;15.00;91.80
1700;DHT22;847;48.058;7.810;2023-03-24T00:30:01;14.70;92.80
1700;DHT22;847;48.058;7.810;2023-03-24T00:32:28;14.90;92.50
1700;DHT22;847;48.058;7.810;2023-03-24T00:34:55;14.90;92.20
1700;DHT22;847;48.058;7.810;2023-03-24T00:37:22;14.80;92.30
1700;DHT22;847;48.058;7.810;2023-03-24T00:39:49;14.70;93.00
1700;DHT22;847;48.058;7.810;2023-03-24T00:42:15;15.00;91.70
1700;DHT22;847;48.058;7.810;2023-03-24T00:44:43;14.90;92.00
1700;DHT22;847;48.058;7.810;2023-03-24T00:47:10;14.80;92.50
1700;DHT22;847;48.058;7.810;2023-03-24T00:49:37;14.60;92.60
1700;DHT22;847;48.058;7.810;2023-03-24T00:52:11;14.50;93.20
1700;DHT22;847;48.058;7.810;2023-03-24T00:54:39;14.60;93.10
1700;DHT22;847;48.058;7.810;2023-03-24T00:57:07;14.80;92.30
1700;DHT22;847;48.058;7.810;2023-03-24T00:59:34;14.60;92.70
1700;DHT22;847;48.058;7.810;2023-03-24T01:02:08;14.50;93.10
1700;DHT22;847;48.058;7.810;2023-03-24T01:04:36;14.50;93.20
1700;DHT22;847;48.058;7.810;2023-03-24T01:07:04;14.60;92.70
1700;DHT22;847;48.058;7.810;2023-03-24T01:09:32;14.50;93.20
1700;DHT22;847;48.058;7.810;2023-03-24T01:12:00;14.50;93.10
1700;DHT22;847;48.058;7.810;2023-03-24T01:14:27;14.50;93.10
1700;DHT22;847;48.058;7.810;2023-03-24T01:16:54;14.50;92.80
1700;DHT22;847;48.058;7.810;2023-03-24T01:19:22;14.40;92.60
1700;DHT22;847;48.058;7.810;2023-03-24T01:21:50;14.60;92.10
1700;DHT22;847;48.058;7.810;2023-03-24T01:24:19;14.50;92.00
1700;DHT22;847;48.058;7.810;2023-03-24T01:26:46;14.60;91.60
1700;DHT22;847;48.058;7.810;2023-03-24T01:29:14;14.50;92.10
1700;DHT22;847;48.058;7.810;2023-03-24T01:31:40;14.50;91.60
1700;DHT22;847;48.058;7.810;2023-03-24T01:34:07;14.60;91.40
1700;DHT22;847;48.058;7.810;2023-03-24T01:36:35;14.70;90.70
1700;DHT22;847;48.058;7.810;2023-03-24T01:39:03;14.70;90.60
1700;DHT22;847;48.058;7.810;2023-03-24T01:41:32;14.50;91.40
1700;DHT22;847;48.058;7.810;2023-03-24T01:43:59;14.30;92.90
1700;DHT22;847;48.058;7.810;2023-03-24T01:46:26;14.10;93.70
1700;DHT22;847;48.058;7.810;2023-03-24T01:48:57;14.00;94.20
1700;DHT22;847;48.058;7.810;2023-03-24T01:51:27;14.00;94.10
1700;DHT22;847;48.058;7.810;2023-03-24T01:53:59;14.00;94.00
1700;DHT22;847;48.058;7.810;2023-03-24T01:56:30;14.20;93.60
1700;DHT22;847;48.058;7.810;2023-03-24T01:59:03;14.10;94.00
1700;DHT22;847;48.058;7.810;2023-03-24T02:01:31;14.00;94.40
1700;DHT22;847;48.058;7.810;2023-03-24T02:04:00;14.00;94.50
1700;DHT22;847;48.058;7.810;2023-03-24T02:06:29;14.10;94.10
1700;DHT22;847;48.058;7.810;2023-03-24T02:08:59;14.10;93.70
1700;DHT22;847;48.058;7.810;2023-03-24T02:11:29;14.10;93.80
1700;DHT22;847;48.058;7.810;2023-03-24T02:13:56;14.00;94.20
1700;DHT22;847;48.058;7.810;2023-03-24T02:16:45;13.90;94.20
1700;DHT22;847;48.058;7.810;2023-03-24T02:19:41;13.80;95.20
1700;DHT22;847;48.058;7.810;2023-03-24T02:22:38;14.10;94.00
1700;DHT22;847;48.058;7.810;2023-03-24T02:25:46;14.20;93.50
1700;DHT22;847;48.058;7.810;2023-03-24T02:28:27;14.20;93.90
1700;DHT22;847;48.058;7.810;2023-03-24T02:31:21;14.10;93.90
1700;DHT22;847;48.058;7.810;2023-03-24T02:34:32;14.10;94.00
1700;DHT22;847;48.058;7.810;2023-03-24T02:37:37;14.10;94.20
1700;DHT22;847;48.058;7.810;2023-03-24T02:40:35;14.00;94.60
1700;DHT22;847;48.058;7.810;2023-03-24T02:43:23;13.90;95.10
1700;DHT22;847;48.058;7.810;2023-03-24T02:46:03;13.90;95.00
1700;DHT22;847;48.058;7.810;2023-03-24T02:48:43;13.90;94.90
1700;DHT22;847;48.058;7.810;2023-03-24T02:51:16;13.80;95.30
1700;DHT22;847;48.058;7.810;2023-03-24T02:53:53;13.80;95.20
1700;DHT22;847;48.058;7.810;2023-03-24T02:56:26;13.80;95.40
1700;DHT22;847;48.058;7.810;2023-03-24T02:59:00;13.90;94.90
1700;DHT22;847;48.058;7.810;2023-03-24T03:01:30;13.80;95.30
1700;DHT22;847;48.058;7.810;2023-03-24T03:04:03;13.90;94.90
1700;DHT22;847;48.058;7.810;2023-03-24T03:06:33;13.90;94.60
1700;DHT22;847;48.058;7.810;2023-03-24T03:09:05;13.90;94.40
1700;DHT22;847;48.058;7.810;2023-03-24T03:11:35;13.80;94.90
1700;DHT22;847;48.058;7.810;2023-03-24T03:14:05;13.80;94.80
1700;DHT22;847;48.058;7.810;2023-03-24T03:16:39;13.90;94.40
1700;DHT22;847;48.058;7.810;2023-03-24T03:19:13;14.00;94.20
1700;DHT22;847;48.058;7.810;2023-03-24T03:21:43;14.10;93.80
1700;DHT22;847;48.058;7.810;2023-03-24T03:24:14;14.10;93.80
1700;DHT22;847;48.058;7.810;2023-03-24T03:26:46;13.90;95.10
1700;DHT22;847;48.058;7.810;2023-03-24T03:29:17;13.80;95.30
1700;DHT22;847;48.058;7.810;2023-03-24T03:31:49;13.80;95.90
1700;DHT22;847;48.058;7.810;2023-03-24T03:34:21;13.70;96.20
1700;DHT22;847;48.058;7.810;2023-03-24T03:36:56;13.80;96.30
1700;DHT22;847;48.058;7.810;2023-03-24T03:39:28;13.80;96.50
1700;DHT22;847;48.058;7.810;2023-03-24T03:41:57;13.70;96.40
1700;DHT22;847;48.058;7.810;2023-03-24T03:44:24;13.90;95.40
1700;DHT22;847;48.058;7.810;2023-03-24T03:46:51;14.10;94.20
1700;DHT22;847;48.058;7.810;2023-03-24T03:49:18;14.30;93.10
1700;DHT22;847;48.058;7.810;2023-03-24T03:51:45;14.50;91.90
1700;DHT22;847;48.058;7.810;2023-03-24T03:54:15;14.60;89.50
1700;DHT22;847;48.058;7.810;2023-03-24T03:56:42;14.80;88.40
1700;DHT22;847;48.058;7.810;2023-03-24T03:59:22;14.90;87.20
1700;DHT22;847;48.058;7.810;2023-03-24T04:01:49;15.00;87.30
1700;DHT22;847;48.058;7.810;2023-03-24T04:04:32;15.30;85.00
1700;DHT22;847;48.058;7.810;2023-03-24T04:07:10;15.40;84.30
1700;DHT22;847;48.058;7.810;2023-03-24T04:09:47;15.60;83.10
1700;DHT22;847;48.058;7.810;2023-03-24T04:12:36;15.70;83.70
1700;DHT22;847;48.058;7.810;2023-03-24T04:18:24;15.60;87.20
1700;DHT22;847;48.058;7.810;2023-03-24T04:23:47;15.40;90.20
1700;DHT22;847;48.058;7.810;2023-03-24T04:26:24;15.30;91.10
1700;DHT22;847;48.058;7.810;2023-03-24T04:29:00;15.30;91.70
1700;DHT22;847;48.058;7.810;2023-03-24T04:31:33;15.20;92.00
1700;DHT22;847;48.058;7.810;2023-03-24T04:34:03;15.20;92.40
1700;DHT22;847;48.058;7.810;2023-03-24T04:36:39;15.10;93.10
1700;DHT22;847;48.058;7.810;2023-03-24T04:39:10;15.10;93.10
1700;DHT22;847;48.058;7.810;2023-03-24T04:41:39;15.10;93.60
1700;DHT22;847;48.058;7.810;2023-03-24T04:44:08;15.10;94.00
1700;DHT22;847;48.058;7.810;2023-03-24T04:46:37;15.10;94.50
1700;DHT22;847;48.058;7.810;2023-03-24T04:49:04;15.00;94.80
1700;DHT22;847;48.058;7.810;2023-03-24T04:51:32;14.90;95.80
1700;DHT22;847;48.058;7.810;2023-03-24T04:54:00;14.80;96.00
1700;DHT22;847;48.058;7.810;2023-03-24T04:56:33;14.90;96.40
1700;DHT22;847;48.058;7.810;2023-03-24T04:59:01;14.80;96.80
1700;DHT22;847;48.058;7.810;2023-03-24T05:01:28;14.80;96.60
1700;DHT22;847;48.058;7.810;2023-03-24T05:03:57;14.80;96.60
1700;DHT22;847;48.058;7.810;2023-03-24T05:06:24;14.80;96.90
1700;DHT22;847;48.058;7.810;2023-03-24T05:08:51;14.80;96.90
1700;DHT22;847;48.058;7.810;2023-03-24T05:11:18;14.80;96.90
1700;DHT22;847;48.058;7.810;2023-03-24T05:13:45;14.80;97.00
1700;DHT22;847;48.058;7.810;2023-03-24T05:16:13;14.80;96.70
1700;DHT22;847;48.058;7.810;2023-03-24T05:18:40;14.80;96.80
1700;DHT22;847;48.058;7.810;2023-03-24T05:21:08;14.80;96.50
1700;DHT22;847;48.058;7.810;2023-03-24T05:23:35;14.80;96.60
1700;DHT22;847;48.058;7.810;2023-03-24T05:26:02;14.90;96.30
1700;DHT22;847;48.058;7.810;2023-03-24T05:28:29;14.80;96.30
1700;DHT22;847;48.058;7.810;2023-03-24T05:30:56;14.80;96.30
1700;DHT22;847;48.058;7.810;2023-03-24T05:33:23;14.80;96.70
1700;DHT22;847;48.058;7.810;2023-03-24T05:35:50;14.80;96.70
1700;DHT22;847;48.058;7.810;2023-03-24T05:38:18;14.80;96.90
1700;DHT22;847;48.058;7.810;2023-03-24T05:40:44;14.80;96.80
1700;DHT22;847;48.058;7.810;2023-03-24T05:43:11;14.80;96.90
1700;DHT22;847;48.058;7.810;2023-03-24T05:45:38;14.80;96.80
1700;DHT22;847;48.058;7.810;2023-03-24T05:48:06;14.80;97.10
1700;DHT22;847;48.058;7.810;2023-03-24T05:50:32;14.70;97.20
1700;DHT22;847;48.058;7.810;2023-03-24T05:52:59;14.70;97.20
1700;DHT22;847;48.058;7.810;2023-03-24T05:55:27;14.70;97.00
1700;DHT22;847;48.058;7.810;2023-03-24T05:57:55;14.70;97.20
1700;DHT22;847;48.058;7.810;2023-03-24T06:00:21;14.60;97.80
1700;DHT22;847;48.058;7.810;2023-03-24T06:02:49;14.60;97.90
1700;DHT22;847;48.058;7.810;2023-03-24T06:05:16;14.60;98.00
1700;DHT22;847;48.058;7.810;2023-03-24T06:07:42;14.60;98.10
1700;DHT22;847;48.058;7.810;2023-03-24T06:10:10;14.60;98.40
1700;DHT22;847;48.058;7.810;2023-03-24T06:12:40;14.60;98.50
1700;DHT22;847;48.058;7.810;2023-03-24T06:15:08;14.60;98.70
1700;DHT22;847;48.058;7.810;2023-03-24T06:17:35;14.60;98.90
1700;DHT22;847;48.058;7.810;2023-03-24T06:20:03;14.50;99.00
1700;DHT22;847;48.058;7.810;2023-03-24T06:22:36;14.50;99.00
1700;DHT22;847;48.058;7.810;2023-03-24T06:25:04;14.40;99.00
1700;DHT22;847;48.058;7.810;2023-03-24T06:27:31;14.40;99.00
1700;DHT22;847;48.058;7.810;2023-03-24T06:29:59;14.40;99.00
1700;DHT22;847;48.058;7.810;2023-03-24T06:32:26;14.40;99.00
1700;DHT22;847;48.058;7.810;2023-03-24T06:34:53;14.40;99.00
1700;DHT22;847;48.058;7.810;2023-03-24T06:37:21;14.30;99.00
1700;DHT22;847;48.058;7.810;2023-03-24T06:39:48;14.30;99.00
1700;DHT22;847;48.058;7.810;2023-03-24T06:42:15;14.40;99.00
1700;DHT22;847;48.058;7.810;2023-03-24T06:44:42;14.40;99.00
1700;DHT22;847;48.058;7.810;2023-03-24T06:47:11;14.40;99.00
1700;DHT22;847;48.058;7.810;2023-03-24T06:49:37;14.40;99.00
1700;DHT22;847;48.058;7.810;2023-03-24T06:52:04;14.30;99.00
1700;DHT22;847;48.058;7.810;2023-03-24T06:54:31;14.30;99.00
1700;DHT22;847;48.058;7.810;2023-03-24T06:56:58;14.30;99.00
1700;DHT22;847;48.058;7.810;2023-03-24T06:59:25;14.30;99.00
1700;DHT22;847;48.058;7.810;2023-03-24T07:01:52;14.30;99.00
1700;DHT22;847;48.058;7.810;2023-03-24T07:04:21;14.30;99.00
1700;DHT22;847;48.058;7.810;2023-03-24T07:06:50;14.30;99.00
1700;DHT22;847;48.058;7.810;2023-03-24T07:09:17;14.30;99.00
1700;DHT22;847;48.058;7.810;2023-03-24T07:11:44;14.20;99.00
1700;DHT22;847;48.058;7.810;2023-03-24T07:14:11;14.20;99.00
1700;DHT22;847;48.058;7.810;2023-03-24T07:16:37;14.20;99.00
1700;DHT22;847;48.058;7.810;2023-03-24T07:19:04;14.20;99.00
1700;DHT22;847;48.058;7.810;2023-03-24T07:21:32;14.20;99.00
1700;DHT22;847;48.058;7.810;2023-03-24T07:23:59;14.20;99.00
1700;DHT22;847;48.058;7.810;2023-03-24T07:26:26;14.20;99.00
1700;DHT22;847;48.058;7.810;2023-03-24T07:28:53;14.20;99.00
1700;DHT22;847;48.058;7.810;2023-03-24T07:31:20;14.20;99.00
1700;DHT22;847;48.058;7.810;2023-03-24T07:33:47;14.10;99.00
1700;DHT22;847;48.058;7.810;2023-03-24T07:36:14;14.10;99.00
1700;DHT22;847;48.058;7.810;2023-03-24T07:38:42;14.10;99.00
1700;DHT22;847;48.058;7.810;2023-03-24T07:41:09;14.10;99.00
1700;DHT22;847;48.058;7.810;2023-03-24T07:43:36;14.10;99.00
1700;DHT22;847;48.058;7.810;2023-03-24T07:46:03;14.00;99.00
1700;DHT22;847;48.058;7.810;2023-03-24T07:48:30;14.00;99.00
1700;DHT22;847;48.058;7.810;2023-03-24T07:50:56;14.00;99.00
1700;DHT22;847;48.058;7.810;2023-03-24T07:53:23;13.90;99.00
1700;DHT22;847;48.058;7.810;2023-03-24T07:55:52;13.90;99.00
1700;DHT22;847;48.058;7.810;2023-03-24T07:58:18;13.90;99.00
1700;DHT22;847;48.058;7.810;2023-03-24T08:00:45;13.90;99.00
1700;DHT22;847;48.058;7.810;2023-03-24T08:03:12;13.90;99.00
1700;DHT22;847;48.058;7.810;2023-03-24T08:05:40;13.90;99.00
1700;DHT22;847;48.058;7.810;2023-03-24T08:08:08;13.90;99.00
1700;DHT22;847;48.058;7.810;2023-03-24T08:10:35;13.90;99.00
1700;DHT22;847;48.058;7.810;2023-03-24T08:13:03;13.90;99.00
1700;DHT22;847;48.058;7.810;2023-03-24T08:15:30;13.90;99.00
1700;DHT22;847;48.058;7.810;2023-03-24T08:17:57;13.90;99.00
1700;DHT22;847;48.058;7.810;2023-03-24T08:20:24;13.80;99.00
1700;DHT22;847;48.058;7.810;2023-03-24T08:22:52;13.90;99.00
1700;DHT22;847;48.058;7.810;2023-03-24T08:25:20;13.90;99.00
1700;DHT22;847;48.058;7.810;2023-03-24T08:27:47;13.90;99.00
1700;DHT22;847;48.058;7.810;2023-03-24T08:30:17;14.10;99.00
1700;DHT22;847;48.058;7.810;2023-03-24T08:32:45;14.30;99.00
1700;DHT22;847;48.058;7.810;2023-03-24T08:35:15;14.50;99.00
1700;DHT22;847;48.058;7.810;2023-03-24T08:37:43;14.60;99.00
1700;DHT22;847;48.058;7.810;2023-03-24T08:40:12;14.70;99.00
1700;DHT22;847;48.058;7.810;2023-03-24T08:42:43;14.80;99.00
1700;DHT22;847;48.058;7.810;2023-03-24T08:45:11;15.00;99.00
1700;DHT22;847;48.058;7.810;2023-03-24T08:47:39;15.10;98.30
1700;DHT22;847;48.058;7.810;2023-03-24T08:50:07;15.20;97.70
1700;DHT22;847;48.058;7.810;2023-03-24T08:52:34;15.30;97.70
1700;DHT22;847;48.058;7.810;2023-03-24T08:55:02;15.30;97.40
1700;DHT22;847;48.058;7.810;2023-03-24T08:57:29;15.40;96.80
1700;DHT22;847;48.058;7.810;2023-03-24T08:59:56;15.50;95.70
1700;DHT22;847;48.058;7.810;2023-03-24T09:02:22;15.60;95.10
1700;DHT22;847;48.058;7.810;2023-03-24T09:04:51;15.50;95.20
1700;DHT22;847;48.058;7.810;2023-03-24T09:07:20;15.50;95.60
1700;DHT22;847;48.058;7.810;2023-03-24T09:09:47;15.50;95.40
1700;DHT22;847;48.058;7.810;2023-03-24T09:12:14;15.40;95.10
1700;DHT22;847;48.058;7.810;2023-03-24T09:14:45;15.40;95.80
1700;DHT22;847;48.058;7.810;2023-03-24T09:17:12;15.50;95.70
1700;DHT22;847;48.058;7.810;2023-03-24T09:19:39;15.50;95.50
1700;DHT22;847;48.058;7.810;2023-03-24T09:22:07;15.50;95.20
1700;DHT22;847;48.058;7.810;2023-03-24T09:24:34;15.50;95.10
1700;DHT22;847;48.058;7.810;2023-03-24T09:27:01;15.60;95.00
1700;DHT22;847;48.058;7.810;2023-03-24T09:29:28;15.60;95.20
1700;DHT22;847;48.058;7.810;2023-03-24T09:31:55;15.60;95.30
1700;DHT22;847;48.058;7.810;2023-03-24T09:34:21;15.70;94.90
1700;DHT22;847;48.058;7.810;2023-03-24T09:36:48;15.60;95.10
1700;DHT22;847;48.058;7.810;2023-03-24T09:39:16;15.60;95.50
1700;DHT22;847;48.058;7.810;2023-03-24T09:41:43;15.70;95.60
1700;DHT22;847;48.058;7.810;2023-03-24T09:44:20;15.70;95.00
1700;DHT22;847;48.058;7.810;2023-03-24T09:46:50;15.70;94.90
1700;DHT22;847;48.058;7.810;2023-03-24T09:49:22;15.70;94.00
1700;DHT22;847;48.058;7.810;2023-03-24T09:51:51;15.70;94.00
1700;DHT22;847;48.058;7.810;2023-03-24T09:54:26;15.60;93.90
1700;DHT22;847;48.058;7.810;2023-03-24T09:56:56;15.60;94.50
1700;DHT22;847;48.058;7.810;2023-03-24T09:59:31;15.40;94.40
1700;DHT22;847;48.058;7.810;2023-03-24T10:01:58;15.30;94.60
1700;DHT22;847;48.058;7.810;2023-03-24T10:04:27;15.20;94.20
1700;DHT22;847;48.058;7.810;2023-03-24T10:07:00;15.20;94.20
1700;DHT22;847;48.058;7.810;2023-03-24T10:09:34;15.20;94.30
1700;DHT22;847;48.058;7.810;2023-03-24T10:12:14;15.10;94.70
1700;DHT22;847;48.058;7.810;2023-03-24T10:14:54;15.10;95.70
1700;DHT22;847;48.058;7.810;2023-03-24T10:17:27;15.10;95.60
1700;DHT22;847;48.058;7.810;2023-03-24T10:20:01;15.10;95.90
1700;DHT22;847;48.058;7.810;2023-03-24T10:22:33;15.10;95.80
1700;DHT22;847;48.058;7.810;2023-03-24T10:25:10;15.00;96.80
1700;DHT22;847;48.058;7.810;2023-03-24T10:27:44;14.90;97.20
1700;DHT22;847;48.058;7.810;2023-03-24T10:30:16;15.00;97.00
1700;DHT22;847;48.058;7.810;2023-03-24T10:32:44;14.90;97.50
1700;DHT22;847;48.058;7.810;2023-03-24T10:35:15;14.90;97.30
1700;DHT22;847;48.058;7.810;2023-03-24T10:37:44;15.00;97.40
1700;DHT22;847;48.058;7.810;2023-03-24T10:40:15;14.90;97.50
1700;DHT22;847;48.058;7.810;2023-03-24T10:42:44;14.90;97.60
1700;DHT22;847;48.058;7.810;2023-03-24T10:45:12;15.00;97.30
1700;DHT22;847;48.058;7.810;2023-03-24T10:47:40;14.90;97.60
1700;DHT22;847;48.058;7.810;2023-03-24T10:50:09;14.80;97.10
1700;DHT22;847;48.058;7.810;2023-03-24T10:52:41;14.80;97.40
1700;DHT22;847;48.058;7.810;2023-03-24T10:55:15;14.80;97.00
1700;DHT22;847;48.058;7.810;2023-03-24T10:57:44;14.80;96.80
1700;DHT22;847;48.058;7.810;2023-03-24T11:00:16;14.70;97.30
1700;DHT22;847;48.058;7.810;2023-03-24T11:02:54;14.70;97.30
1700;DHT22;847;48.058;7.810;2023-03-24T11:05:26;14.60;97.70
1700;DHT22;847;48.058;7.810;2023-03-24T11:07:57;14.60;97.40
1700;DHT22;847;48.058;7.810;2023-03-24T11:10:26;14.60;97.10
1700;DHT22;847;48.058;7.810;2023-03-24T11:13:00;14.60;96.70
1700;DHT22;847;48.058;7.810;2023-03-24T11:15:30;14.50;97.10
1700;DHT22;847;48.058;7.810;2023-03-24T11:18:00;14.50;97.30
1700;DHT22;847;48.058;7.810;2023-03-24T11:20:34;14.50;97.20
1700;DHT22;847;48.058;7.810;2023-03-24T11:23:05;14.50;96.20
1700;DHT22;847;48.058;7.810;2023-03-24T11:25:35;14.50;96.30
1700;DHT22;847;48.058;7.810;2023-03-24T11:28:05;14.50;96.30
1700;DHT22;847;48.058;7.810;2023-03-24T11:30:43;14.50;96.10
1700;DHT22;847;48.058;7.810;2023-03-24T11:33:17;14.60;95.90
1700;DHT22;847;48.058;7.810;2023-03-24T11:35:44;14.60;95.70
1700;DHT22;847;48.058;7.810;2023-03-24T11:38:15;14.60;95.20
1700;DHT22;847;48.058;7.810;2023-03-24T11:40:53;14.60;94.90
1700;DHT22;847;48.058;7.810;2023-03-24T11:43:23;14.60;95.20
1700;DHT22;847;48.058;7.810;2023-03-24T11:45:57;14.50;95.50
1700;DHT22;847;48.058;7.810;2023-03-24T11:48:29;14.50;96.00
1700;DHT22;847;48.058;7.810;2023-03-24T11:50:57;14.50;96.10
1700;DHT22;847;48.058;7.810;2023-03-24T11:53:29;14.60;96.10
1700;DHT22;847;48.058;7.810;2023-03-24T11:56:03;14.70;95.90
1700;DHT22;847;48.058;7.810;2023-03-24T11:58:36;14.70;95.90
1700;DHT22;847;48.058;7.810;2023-03-24T12:01:11;14.80;95.70
1700;DHT22;847;48.058;7.810;2023-03-24T12:04:15;14.60;95.40
1700;DHT22;847;48.058;7.810;2023-03-24T12:06:55;14.60;95.90
1700;DHT22;847;48.058;7.810;2023-03-24T12:09:29;14.60;96.10
1700;DHT22;847;48.058;7.810;2023-03-24T12:12:09;14.60;96.10
1700;DHT22;847;48.058;7.810;2023-03-24T12:14:49;14.60;96.30
1700;DHT22;847;48.058;7.810;2023-03-24T12:17:22;14.60;96.10
1700;DHT22;847;48.058;7.810;2023-03-24T12:20:00;14.60;95.90
1700;DHT22;847;48.058;7.810;2023-03-24T12:22:43;14.60;96.20
1700;DHT22;847;48.058;7.810;2023-03-24T12:25:32;14.50;95.90
1700;DHT22;847;48.058;7.810;2023-03-24T12:28:15;14.50;95.90
1700;DHT22;847;48.058;7.810;2023-03-24T12:30:51;14.50;95.90
1700;DHT22;847;48.058;7.810;2023-03-24T12:33:29;14.50;95.90
1700;DHT22;847;48.058;7.810;2023-03-24T12:36:19;14.50;95.70
1700;DHT22;847;48.058;7.810;2023-03-24T12:39:01;14.50;95.60
1700;DHT22;847;48.058;7.810;2023-03-24T12:44:35;14.50;95.30
1700;DHT22;847;48.058;7.810;2023-03-24T12:47:11;14.40;95.60
1700;DHT22;847;48.058;7.810;2023-03-24T12:49:50;14.40;95.10
1700;DHT22;847;48.058;7.810;2023-03-24T12:55:29;14.30;95.10
1700;DHT22;847;48.058;7.810;2023-03-24T12:58:01;14.30;95.00
1700;DHT22;847;48.058;7.810;2023-03-24T13:00:34;14.30;94.70
1700;DHT22;847;48.058;7.810;2023-03-24T13:03:05;14.30;94.70
1700;DHT22;847;48.058;7.810;2023-03-24T13:05:38;14.20;95.10
1700;DHT22;847;48.058;7.810;2023-03-24T13:08:11;14.20;94.60
1700;DHT22;847;48.058;7.810;2023-03-24T13:10:41;14.20;94.00
1700;DHT22;847;48.058;7.810;2023-03-24T13:13:12;14.20;94.30
1700;DHT22;847;48.058;7.810;2023-03-24T13:15:46;14.20;94.20
1700;DHT22;847;48.058;7.810;2023-03-24T13:18:29;14.20;94.10
1700;DHT22;847;48.058;7.810;2023-03-24T13:21:00;14.20;94.20
1700;DHT22;847;48.058;7.810;2023-03-24T13:23:40;14.10;93.90
1700;DHT22;847;48.058;7.810;2023-03-24T13:26:19;14.10;93.70
1700;DHT22;847;48.058;7.810;2023-03-24T13:28:59;14.20;93.50
1700;DHT22;847;48.058;7.810;2023-03-24T13:31:34;14.20;93.70
1700;DHT22;847;48.058;7.810;2023-03-24T13:34:04;14.20;93.20
1700;DHT22;847;48.058;7.810;2023-03-24T13:36:41;14.20;93.40
1700;DHT22;847;48.058;7.810;2023-03-24T13:39:13;14.10;93.10
1700;DHT22;847;48.058;7.810;2023-03-24T13:41:46;14.10;93.00
1700;DHT22;847;48.058;7.810;2023-03-24T13:44:17;14.10;93.20
1700;DHT22;847;48.058;7.810;2023-03-24T13:47:03;14.10;93.10
1700;DHT22;847;48.058;7.810;2023-03-24T13:49:31;14.00;93.00
1700;DHT22;847;48.058;7.810;2023-03-24T13:52:02;14.10;92.40
1700;DHT22;847;48.058;7.810;2023-03-24T13:54:30;14.10;92.60
1700;DHT22;847;48.058;7.810;2023-03-24T13:57:03;14.00;92.30
1700;DHT22;847;48.058;7.810;2023-03-24T13:59:31;14.00;92.30
1700;DHT22;847;48.058;7.810;2023-03-24T14:02:19;14.00;92.20
1700;DHT22;847;48.058;7.810;2023-03-24T14:04:48;14.00;93.00
1700;DHT22;847;48.058;7.810;2023-03-24T14:07:31;14.00;93.20
1700;DHT22;847;48.058;7.810;2023-03-24T14:09:59;13.90;93.40
1700;DHT22;847;48.058;7.810;2023-03-24T14:12:26;13.90;94.10
1700;DHT22;847;48.058;7.810;2023-03-24T14:15:25;13.80;94.00
1700;DHT22;847;48.058;7.810;2023-03-24T14:17:56;13.80;94.40
1700;DHT22;847;48.058;7.810;2023-03-24T14:20:43;13.70;94.30
1700;DHT22;847;48.058;7.810;2023-03-24T14:23:31;13.70;94.30
1700;DHT22;847;48.058;7.810;2023-03-24T14:26:00;13.60;94.70
1700;DHT22;847;48.058;7.810;2023-03-24T14:28:29;13.60;94.80
1700;DHT22;847;48.058;7.810;2023-03-24T14:31:13;13.60;94.70
1700;DHT22;847;48.058;7.810;2023-03-24T14:34:00;13.60;94.80
1700;DHT22;847;48.058;7.810;2023-03-24T14:36:29;13.60;94.70
1700;DHT22;847;48.058;7.810;2023-03-24T14:39:06;13.60;94.60
1700;DHT22;847;48.058;7.810;2023-03-24T14:41:35;13.70;94.10
1700;DHT22;847;48.058;7.810;2023-03-24T14:44:05;13.70;94.10
1700;DHT22;847;48.058;7.810;2023-03-24T14:46:35;13.70;94.10
1700;DHT22;847;48.058;7.810;2023-03-24T14:49:12;13.70;93.90
1700;DHT22;847;48.058;7.810;2023-03-24T14:51:43;13.70;93.70
1700;DHT22;847;48.058;7.810;2023-03-24T14:54:16;13.70;93.20
1700;DHT22;847;48.058;7.810;2023-03-24T14:56:48;13.80;92.80
1700;DHT22;847;48.058;7.810;2023-03-24T14:59:24;13.70;92.90
1700;DHT22;847;48.058;7.810;2023-03-24T15:01:59;13.70;93.20
1700;DHT22;847;48.058;7.810;2023-03-24T15:04:28;13.70;92.70
1700;DHT22;847;48.058;7.810;2023-03-24T15:06:55;13.80;92.10
1700;DHT22;847;48.058;7.810;2023-03-24T15:09:21;13.80;92.30
1700;DHT22;847;48.058;7.810;2023-03-24T15:11:48;13.80;92.70
1700;DHT22;847;48.058;7.810;2023-03-24T15:14:20;13.80;92.00
1700;DHT22;847;48.058;7.810;2023-03-24T15:16:53;13.80;92.10
1700;DHT22;847;48.058;7.810;2023-03-24T15:19:21;13.80;92.20
1700;DHT22;847;48.058;7.810;2023-03-24T15:21:57;13.80;91.60
1700;DHT22;847;48.058;7.810;2023-03-24T15:24:30;13.80;91.60
1700;DHT22;847;48.058;7.810;2023-03-24T15:27:16;13.80;91.80
1700;DHT22;847;48.058;7.810;2023-03-24T15:29:44;13.80;90.80
1700;DHT22;847;48.058;7.810;2023-03-24T15:32:15;13.80;91.00
1700;DHT22;847;48.058;7.810;2023-03-24T15:34:46;13.80;91.20
1700;DHT22;847;48.058;7.810;2023-03-24T15:37:21;13.80;90.80
1700;DHT22;847;48.058;7.810;2023-03-24T15:39:50;13.80;91.00
1700;DHT22;847;48.058;7.810;2023-03-24T15:42:20;13.90;90.50
1700;DHT22;847;48.058;7.810;2023-03-24T15:44:47;13.90;90.60
1700;DHT22;847;48.058;7.810;2023-03-24T15:47:20;13.90;90.60
1700;DHT22;847;48.058;7.810;2023-03-24T15:49:53;13.90;90.50
1700;DHT22;847;48.058;7.810;2023-03-24T15:52:27;13.90;90.50
1700;DHT22;847;48.058;7.810;2023-03-24T15:54:58;13.80;90.40
1700;DHT22;847;48.058;7.810;2023-03-24T15:57:26;13.80;91.00
1700;DHT22;847;48.058;7.810;2023-03-24T16:00:02;13.80;90.80
1700;DHT22;847;48.058;7.810;2023-03-24T16:02:35;13.80;91.00
1700;DHT22;847;48.058;7.810;2023-03-24T16:05:13;13.80;91.40
1700;DHT22;847;48.058;7.810;2023-03-24T16:07:43;13.80;91.40
1700;DHT22;847;48.058;7.810;2023-03-24T16:10:29;13.80;90.80
1700;DHT22;847;48.058;7.810;2023-03-24T16:13:10;13.80;90.50
1700;DHT22;847;48.058;7.810;2023-03-24T16:15:39;13.70;90.60
1700;DHT22;847;48.058;7.810;2023-03-24T16:18:10;13.70;90.80
1700;DHT22;847;48.058;7.810;2023-03-24T16:20:38;13.70;90.70
1700;DHT22;847;48.058;7.810;2023-03-24T16:23:08;13.70;91.00
1700;DHT22;847;48.058;7.810;2023-03-24T16:25:35;13.70;91.00
1700;DHT22;847;48.058;7.810;2023-03-24T16:28:02;13.80;91.00
1700;DHT22;847;48.058;7.810;2023-03-24T16:30:30;13.80;90.50
1700;DHT22;847;48.058;7.810;2023-03-24T16:33:02;13.80;90.30
1700;DHT22;847;48.058;7.810;2023-03-24T16:35:29;13.80;90.70
1700;DHT22;847;48.058;7.810;2023-03-24T16:37:55;13.80;90.30
1700;DHT22;847;48.058;7.810;2023-03-24T16:40:30;13.90;89.80
1700;DHT22;847;48.058;7.810;2023-03-24T16:42:57;13.80;89.80
1700;DHT22;847;48.058;7.810;2023-03-24T16:45:26;13.80;90.20
1700;DHT22;847;48.058;7.810;2023-03-24T16:47:53;13.80;89.80
1700;DHT22;847;48.058;7.810;2023-03-24T16:50:25;13.80;90.00
1700;DHT22;847;48.058;7.810;2023-03-24T16:52:52;13.80;89.90
1700;DHT22;847;48.058;7.810;2023-03-24T16:55:19;13.80;90.20